sensor_id;sensor_type;location;lat;lon;timestamp;pressure;altitude;pressure_sealevel;temperature;humidity
54854;BME280;40747;49.480;8.658;2023-04-08T00:00:15;100689.22;;;8.64;91.69
54854;BME280;40747;49.480;8.658;2023-04-08T00:02:40;100679.59;;;8.63;92.82
54854;BME280;40747;49.480;8.658;2023-04-08T00:05:07;100694.59;;;8.56;94.18
54854;BME280;40747;49.480;8.658;2023-04-08T00:07:32;100693.00;;;8.46;94.78
54854;BME280;40747;49.480;8.658;2023-04-08T00:09:58;100701.75;;;8.45;94.38
54854;BME280;40747;49.480;8.658;2023-04-08T00:12:23;100697.38;;;8.45;95.02
54854;BME280;40747;49.480;8.658;2023-04-08T00:14:48;100696.53;;;8.43;94.65
54854;BME280;40747;49.480;8.658;2023-04-08T00:17:14;100710.50;;;8.44;94.58
54854;BME280;40747;49.480;8.658;2023-04-08T00:19:39;100707.88;;;8.45;94.64
54854;BME280;40747;49.480;8.658;2023-04-08T00:22:04;100710.88;;;8.19;94.92
54854;BME280;40747;49.480;8.658;2023-04-08T00:24:31;100708.06;;;8.33;95.17
54854;BME280;40747;49.480;8.658;2023-04-08T00:26:56;100706.22;;;8.38;94.35
54854;BME280;40747;49.480;8.658;2023-04-08T00:29:22;100700.19;;;8.33;94.34
54854;BME280;40747;49.480;8.658;2023-04-08T00:31:47;100708.88;;;8.35;93.88
54854;BME280;40747;49.480;8.658;2023-04-08T00:34:12;100709.72;;;8.37;93.93
54854;BME280;40747;49.480;8.658;2023-04-08T00:36:38;100711.41;;;8.41;94.19
54854;BME280;40747;49.480;8.658;2023-04-08T00:39:04;100708.81;;;8.40;94.18
54854;BME280;40747;49.480;8.658;2023-04-08T00:41:33;100703.53;;;8.43;94.18
54854;BME280;40747;49.480;8.658;2023-04-08T00:43:58;100713.06;;;8.50;93.92
54854;BME280;40747;49.480;8.658;2023-04-08T00:46:24;100706.94;;;8.51;93.50
54854;BME280;40747;49.480;8.658;2023-04-08T00:48:51;100706.03;;;8.52;93.99
54854;BME280;40747;49.480;8.658;2023-04-08T00:51:17;100711.25;;;8.53;93.21
54854;BME280;40747;49.480;8.658;2023-04-08T00:53:42;100685.13;;;8.46;93.13
54854;BME280;40747;49.480;8.658;2023-04-08T00:56:08;100709.44;;;8.59;93.27
54854;BME280;40747;49.480;8.658;2023-04-08T00:58:33;100715.50;;;8.62;93.33
54854;BME280;40747;49.480;8.658;2023-04-08T01:01:09;100714.53;;;8.68;93.67
54854;BME280;40747;49.480;8.658;2023-04-08T01:03:56;100705.72;;;8.72;93.41
54854;BME280;40747;49.480;8.658;2023-04-08T01:06:34;100702.25;;;8.70;93.62
54854;BME280;40747;49.480;8.658;2023-04-08T01:09:04;100709.16;;;8.77;93.78
54854;BME280;40747;49.480;8.658;2023-04-08T01:11:31;100703.88;;;8.77;93.10
54854;BME280;40747;49.480;8.658;2023-04-08T01:14:01;100703.81;;;8.80;93.79
54854;BME280;40747;49.480;8.658;2023-04-08T01:16:29;100707.31;;;8.81;93.54
54854;BME280;40747;49.480;8.658;2023-04-08T01:18:55;100699.41;;;8.81;93.36
54854;BME280;40747;49.480;8.658;2023-04-08T01:21:22;100702.94;;;8.81;94.28
54854;BME280;40747;49.480;8.658;2023-04-08T01:24:03;100708.16;;;8.83;95.75
54854;BME280;40747;49.480;8.658;2023-04-08T01:26:31;100705.81;;;8.64;96.10
54854;BME280;40747;49.480;8.658;2023-04-08T01:28:58;100701.59;;;8.57;97.01
54854;BME280;40747;49.480;8.658;2023-04-08T01:31:25;100689.53;;;8.42;97.42
54854;BME280;40747;49.480;8.658;2023-04-08T01:33:51;100706.88;;;8.54;96.64
54854;BME280;40747;49.480;8.658;2023-04-08T01:36:19;100700.63;;;8.61;95.75
54854;BME280;40747;49.480;8.658;2023-04-08T01:38:46;100705.75;;;8.69;95.43
54854;BME280;40747;49.480;8.658;2023-04-08T01:41:11;100698.66;;;8.74;95.24
54854;BME280;40747;49.480;8.658;2023-04-08T01:43:38;100690.75;;;8.76;94.59
54854;BME280;40747;49.480;8.658;2023-04-08T01:46:07;100697.66;;;8.83;94.89
54854;BME280;40747;49.480;8.658;2023-04-08T01:48:33;100700.28;;;8.83;94.71
54854;BME280;40747;49.480;8.658;2023-04-08T01:50:59;100701.16;;;8.82;94.60
54854;BME280;40747;49.480;8.658;2023-04-08T01:53:24;100695.91;;;8.82;94.87
54854;BME280;40747;49.480;8.658;2023-04-08T01:55:54;100696.66;;;8.90;93.81
54854;BME280;40747;49.480;8.658;2023-04-08T01:58:21;100705.47;;;8.88;94.88
54854;BME280;40747;49.480;8.658;2023-04-08T02:00:47;100696.06;;;8.73;95.87
54854;BME280;40747;49.480;8.658;2023-04-08T02:03:13;100698.72;;;8.69;97.14
54854;BME280;40747;49.480;8.658;2023-04-08T02:05:41;100697.06;;;8.65;96.94
54854;BME280;40747;49.480;8.658;2023-04-08T02:08:06;100707.53;;;8.67;96.48
54854;BME280;40747;49.480;8.658;2023-04-08T02:10:31;100697.81;;;8.74;96.60
54854;BME280;40747;49.480;8.658;2023-04-08T02:12:57;100708.25;;;8.77;95.65
54854;BME280;40747;49.480;8.658;2023-04-08T02:15:23;100707.28;;;8.84;96.02
54854;BME280;40747;49.480;8.658;2023-04-08T02:18:00;100695.91;;;8.82;96.30
54854;BME280;40747;49.480;8.658;2023-04-08T02:20:41;100701.97;;;8.85;96.02
54854;BME280;40747;49.480;8.658;2023-04-08T02:23:15;100706.31;;;8.88;95.66
54854;BME280;40747;49.480;8.658;2023-04-08T02:25:44;100711.38;;;8.46;96.58
54854;BME280;40747;49.480;8.658;2023-04-08T02:28:11;100706.88;;;8.54;98.03
54854;BME280;40747;49.480;8.658;2023-04-08T02:30:42;100701.06;;;8.32;97.58
54854;BME280;40747;49.480;8.658;2023-04-08T02:33:08;100707.28;;;8.26;98.45
54854;BME280;40747;49.480;8.658;2023-04-08T02:35:35;100709.00;;;8.27;98.66
54854;BME280;40747;49.480;8.658;2023-04-08T02:38:01;100717.94;;;8.15;99.63
54854;BME280;40747;49.480;8.658;2023-04-08T02:40:28;100716.84;;;8.30;99.56
54854;BME280;40747;49.480;8.658;2023-04-08T02:42:54;100712.41;;;8.32;98.93
54854;BME280;40747;49.480;8.658;2023-04-08T02:45:20;100714.47;;;8.12;99.26
54854;BME280;40747;49.480;8.658;2023-04-08T02:47:45;100715.13;;;8.28;99.16
54854;BME280;40747;49.480;8.658;2023-04-08T02:50:10;100702.03;;;8.26;98.91
54854;BME280;40747;49.480;8.658;2023-04-08T02:52:36;100703.38;;;7.94;99.86
54854;BME280;40747;49.480;8.658;2023-04-08T02:55:01;100703.00;;;8.19;99.82
54854;BME280;40747;49.480;8.658;2023-04-08T02:57:27;100699.28;;;8.34;99.33
54854;BME280;40747;49.480;8.658;2023-04-08T02:59:52;100689.81;;;8.22;99.03
54854;BME280;40747;49.480;8.658;2023-04-08T03:02:17;100710.19;;;8.06;99.52
54854;BME280;40747;49.480;8.658;2023-04-08T03:04:42;100710.16;;;8.08;100.00
54854;BME280;40747;49.480;8.658;2023-04-08T03:07:08;100706.63;;;8.10;100.00
54854;BME280;40747;49.480;8.658;2023-04-08T03:09:33;100702.22;;;8.14;100.00
54854;BME280;40747;49.480;8.658;2023-04-08T03:11:58;100684.59;;;8.22;99.62
54854;BME280;40747;49.480;8.658;2023-04-08T03:14:24;100710.50;;;8.45;99.10
54854;BME280;40747;49.480;8.658;2023-04-08T03:16:49;100693.00;;;8.44;98.71
54854;BME280;40747;49.480;8.658;2023-04-08T03:19:14;100708.56;;;8.58;97.95
54854;BME280;40747;49.480;8.658;2023-04-08T03:21:40;100710.25;;;8.62;97.49
54854;BME280;40747;49.480;8.658;2023-04-08T03:24:05;100714.53;;;8.68;97.97
54854;BME280;40747;49.480;8.658;2023-04-08T03:26:31;100699.69;;;8.65;98.07
54854;BME280;40747;49.480;8.658;2023-04-08T03:28:56;100713.69;;;8.64;98.80
54854;BME280;40747;49.480;8.658;2023-04-08T03:31:21;100707.81;;;8.50;99.64
54854;BME280;40747;49.480;8.658;2023-04-08T03:33:46;100696.56;;;8.42;99.58
54854;BME280;40747;49.480;8.658;2023-04-08T03:36:12;100717.38;;;8.56;99.48
54854;BME280;40747;49.480;8.658;2023-04-08T03:38:37;100709.44;;;8.59;98.68
54854;BME280;40747;49.480;8.658;2023-04-08T03:41:02;100719.84;;;8.65;97.92
54854;BME280;40747;49.480;8.658;2023-04-08T03:43:28;100711.06;;;8.66;97.55
54854;BME280;40747;49.480;8.658;2023-04-08T03:45:54;100717.97;;;8.72;97.22
54854;BME280;40747;49.480;8.658;2023-04-08T03:48:20;100719.75;;;8.71;98.02
54854;BME280;40747;49.480;8.658;2023-04-08T03:50:45;100714.50;;;8.71;98.00
54854;BME280;40747;49.480;8.658;2023-04-08T03:53:10;100710.94;;;8.74;98.55
54854;BME280;40747;49.480;8.658;2023-04-08T03:55:37;100718.81;;;8.74;98.61
54854;BME280;40747;49.480;8.658;2023-04-08T03:58:02;100712.69;;;8.73;98.89
54854;BME280;40747;49.480;8.658;2023-04-08T04:00:27;100719.66;;;8.77;98.01
54854;BME280;40747;49.480;8.658;2023-04-08T04:02:52;100719.59;;;8.80;98.59
54854;BME280;40747;49.480;8.658;2023-04-08T04:05:20;100716.16;;;8.75;99.33
54854;BME280;40747;49.480;8.658;2023-04-08T04:07:45;100716.31;;;8.66;98.27
54854;BME280;40747;49.480;8.658;2023-04-08T04:10:10;100722.38;;;8.69;98.75
54854;BME280;40747;49.480;8.658;2023-04-08T04:12:36;100723.22;;;8.72;97.76
54854;BME280;40747;49.480;8.658;2023-04-08T04:15:01;100727.53;;;8.76;97.51
54854;BME280;40747;49.480;8.658;2023-04-08T04:17:26;100730.13;;;8.79;97.43
54854;BME280;40747;49.480;8.658;2023-04-08T04:19:52;100722.31;;;8.74;96.85
54854;BME280;40747;49.480;8.658;2023-04-08T04:22:17;100732.72;;;8.80;97.23
54854;BME280;40747;49.480;8.658;2023-04-08T04:24:46;100734.44;;;8.83;97.92
54854;BME280;40747;49.480;8.658;2023-04-08T04:27:11;100745.03;;;8.77;97.47
54854;BME280;40747;49.480;8.658;2023-04-08T04:29:37;100739.00;;;8.70;98.28
54854;BME280;40747;49.480;8.658;2023-04-08T04:32:02;100727.81;;;8.59;98.13
54854;BME280;40747;49.480;8.658;2023-04-08T04:34:27;100733.53;;;8.25;99.45
54854;BME280;40747;49.480;8.658;2023-04-08T04:36:52;100741.13;;;8.45;99.35
54854;BME280;40747;49.480;8.658;2023-04-08T04:39:18;100745.50;;;8.46;100.00
54854;BME280;40747;49.480;8.658;2023-04-08T04:41:43;100748.31;;;8.32;99.38
54854;BME280;40747;49.480;8.658;2023-04-08T04:44:08;100745.03;;;8.14;100.00
54854;BME280;40747;49.480;8.658;2023-04-08T04:46:34;100750.41;;;8.08;100.00
54854;BME280;40747;49.480;8.658;2023-04-08T04:48:59;100750.31;;;8.13;100.00
54854;BME280;40747;49.480;8.658;2023-04-08T04:51:24;100751.16;;;8.16;100.00
54854;BME280;40747;49.480;8.658;2023-04-08T04:53:51;100750.16;;;8.25;100.00
54854;BME280;40747;49.480;8.658;2023-04-08T04:56:16;100746.59;;;8.29;100.00
54854;BME280;40747;49.480;8.658;2023-04-08T04:58:42;100755.28;;;8.34;100.00
54854;BME280;40747;49.480;8.658;2023-04-08T05:01:07;100757.91;;;8.34;100.00
54854;BME280;40747;49.480;8.658;2023-04-08T05:03:32;100752.72;;;8.28;100.00
54854;BME280;40747;49.480;8.658;2023-04-08T05:05:58;100750.13;;;8.27;100.00
54854;BME280;40747;49.480;8.658;2023-04-08T05:08:23;100753.50;;;8.35;100.00
54854;BME280;40747;49.480;8.658;2023-04-08T05:10:48;100760.47;;;8.39;100.00
54854;BME280;40747;49.480;8.658;2023-04-08T05:13:14;100750.88;;;8.36;100.00
54854;BME280;40747;49.480;8.658;2023-04-08T05:15:40;100755.13;;;8.47;100.00
54854;BME280;40747;49.480;8.658;2023-04-08T05:18:05;100755.94;;;8.52;99.89
54854;BME280;40747;49.480;8.658;2023-04-08T05:20:31;100766.63;;;8.36;100.00
54854;BME280;40747;49.480;8.658;2023-04-08T05:22:56;100775.59;;;8.20;100.00
54854;BME280;40747;49.480;8.658;2023-04-08T05:25:21;100769.53;;;8.16;100.00
54854;BME280;40747;49.480;8.658;2023-04-08T05:27:47;100760.72;;;8.20;100.00
54854;BME280;40747;49.480;8.658;2023-04-08T05:30:12;100774.72;;;8.21;100.00
54854;BME280;40747;49.480;8.658;2023-04-08T05:32:38;100770.16;;;8.32;100.00
54854;BME280;40747;49.480;8.658;2023-04-08T05:35:04;100777.03;;;8.43;100.00
54854;BME280;40747;49.480;8.658;2023-04-08T05:37:29;100770.00;;;8.48;100.00
54854;BME280;40747;49.480;8.658;2023-04-08T05:39:54;100773.38;;;8.56;100.00
54854;BME280;40747;49.480;8.658;2023-04-08T05:42:20;100769.78;;;8.60;100.00
54854;BME280;40747;49.480;8.658;2023-04-08T05:44:45;100787.34;;;8.58;100.00
54854;BME280;40747;49.480;8.658;2023-04-08T05:47:10;100781.44;;;8.41;100.00
54854;BME280;40747;49.480;8.658;2023-04-08T05:49:36;100778.75;;;8.44;100.00
54854;BME280;40747;49.480;8.658;2023-04-08T05:52:01;100793.81;;;8.31;100.00
54854;BME280;40747;49.480;8.658;2023-04-08T05:54:28;100782.38;;;8.35;100.00
54854;BME280;40747;49.480;8.658;2023-04-08T05:56:53;100786.72;;;8.37;100.00
54854;BME280;40747;49.480;8.658;2023-04-08T05:59:18;100790.09;;;8.49;100.00
54854;BME280;40747;49.480;8.658;2023-04-08T06:01:43;100806.97;;;8.29;100.00
54854;BME280;40747;49.480;8.658;2023-04-08T06:04:09;100798.88;;;8.46;100.00
54854;BME280;40747;49.480;8.658;2023-04-08T06:06:36;100802.19;;;8.59;100.00
54854;BME280;40747;49.480;8.658;2023-04-08T06:09:02;100796.91;;;8.62;99.55
54854;BME280;40747;49.480;8.658;2023-04-08T06:11:28;100801.94;;;8.78;99.24
54854;BME280;40747;49.480;8.658;2023-04-08T06:13:53;100808.13;;;8.74;98.61
54854;BME280;40747;49.480;8.658;2023-04-08T06:16:18;100801.88;;;8.81;98.56
54854;BME280;40747;49.480;8.658;2023-04-08T06:18:44;100808.72;;;8.93;97.94
54854;BME280;40747;49.480;8.658;2023-04-08T06:21:09;100809.75;;;8.82;97.77
54854;BME280;40747;49.480;8.658;2023-04-08T06:23:35;100806.06;;;8.91;97.67
54854;BME280;40747;49.480;8.658;2023-04-08T06:26:01;100807.78;;;8.95;97.94
54854;BME280;40747;49.480;8.658;2023-04-08T06:28:28;100817.75;;;8.75;99.22
54854;BME280;40747;49.480;8.658;2023-04-08T06:30:53;100821.66;;;8.44;99.78
54854;BME280;40747;49.480;8.658;2023-04-08T06:33:19;100826.19;;;8.31;100.00
54854;BME280;40747;49.480;8.658;2023-04-08T06:35:44;100822.63;;;8.35;100.00
54854;BME280;40747;49.480;8.658;2023-04-08T06:38:09;100830.47;;;8.40;100.00
54854;BME280;40747;49.480;8.658;2023-04-08T06:40:37;100812.53;;;8.04;100.00
54854;BME280;40747;49.480;8.658;2023-04-08T06:43:03;100828.38;;;7.95;100.00
54854;BME280;40747;49.480;8.658;2023-04-08T06:45:31;100836.28;;;7.92;100.00
54854;BME280;40747;49.480;8.658;2023-04-08T06:47:56;100825.84;;;7.87;100.00
54854;BME280;40747;49.480;8.658;2023-04-08T06:50:22;100832.97;;;7.78;100.00
54854;BME280;40747;49.480;8.658;2023-04-08T06:52:47;100831.28;;;7.70;100.00
54854;BME280;40747;49.480;8.658;2023-04-08T06:55:12;100835.59;;;7.78;100.00
54854;BME280;40747;49.480;8.658;2023-04-08T06:57:38;100842.63;;;7.73;100.00
54854;BME280;40747;49.480;8.658;2023-04-08T07:00:04;100835.59;;;7.75;100.00
54854;BME280;40747;49.480;8.658;2023-04-08T07:02:30;100844.22;;;7.86;100.00
54854;BME280;40747;49.480;8.658;2023-04-08T07:04:56;100844.13;;;7.94;100.00
54854;BME280;40747;49.480;8.658;2023-04-08T07:07:22;100844.13;;;7.94;100.00
54854;BME280;40747;49.480;8.658;2023-04-08T07:09:48;100850.97;;;8.06;100.00
54854;BME280;40747;49.480;8.658;2023-04-08T07:12:14;100836.97;;;8.07;100.00
54854;BME280;40747;49.480;8.658;2023-04-08T07:14:39;100846.50;;;8.15;100.00
54854;BME280;40747;49.480;8.658;2023-04-08T07:17:05;100851.84;;;8.08;100.00
54854;BME280;40747;49.480;8.658;2023-04-08T07:19:30;100856.16;;;8.13;100.00
54854;BME280;40747;49.480;8.658;2023-04-08T07:21:56;100866.59;;;8.18;100.00
54854;BME280;40747;49.480;8.658;2023-04-08T07:24:22;100858.56;;;8.30;100.00
54854;BME280;40747;49.480;8.658;2023-04-08T07:26:47;100868.13;;;8.34;100.00
54854;BME280;40747;49.480;8.658;2023-04-08T07:29:13;100857.59;;;8.37;100.00
54854;BME280;40747;49.480;8.658;2023-04-08T07:31:42;100863.66;;;8.46;99.64
54854;BME280;40747;49.480;8.658;2023-04-08T07:34:07;100868.84;;;8.52;99.52
54854;BME280;40747;49.480;8.658;2023-04-08T07:36:32;100849.72;;;8.39;99.15
54854;BME280;40747;49.480;8.658;2023-04-08T07:38:58;100881.81;;;8.61;97.82
54854;BME280;40747;49.480;8.658;2023-04-08T07:41:23;100878.22;;;8.67;96.87
54854;BME280;40747;49.480;8.658;2023-04-08T07:43:48;100879.28;;;8.55;96.69
54854;BME280;40747;49.480;8.658;2023-04-08T07:46:14;100881.56;;;8.81;96.22
54854;BME280;40747;49.480;8.658;2023-04-08T07:48:39;100876.22;;;8.88;95.17
54854;BME280;40747;49.480;8.658;2023-04-08T07:51:08;100880.66;;;8.82;91.96
54854;BME280;40747;49.480;8.658;2023-04-08T07:53:34;100884.97;;;8.87;92.15
54854;BME280;40747;49.480;8.658;2023-04-08T07:56:00;100873.34;;;9.03;91.21
54854;BME280;40747;49.480;8.658;2023-04-08T07:58:28;100880.72;;;9.35;90.60
54854;BME280;40747;49.480;8.658;2023-04-08T08:00:53;100874.91;;;9.66;88.96
54854;BME280;40747;49.480;8.658;2023-04-08T08:03:18;100874.38;;;9.97;88.51
54854;BME280;40747;49.480;8.658;2023-04-08T08:05:44;100874.94;;;10.12;88.95
54854;BME280;40747;49.480;8.658;2023-04-08T08:08:09;100880.63;;;10.36;87.79
54854;BME280;40747;49.480;8.658;2023-04-08T08:10:37;100876.84;;;10.49;86.47
54854;BME280;40747;49.480;8.658;2023-04-08T08:13:03;100879.16;;;10.64;85.47
54854;BME280;40747;49.480;8.658;2023-04-08T08:15:29;100891.19;;;10.76;84.35
54854;BME280;40747;49.480;8.658;2023-04-08T08:17:54;100882.81;;;10.59;83.19
54854;BME280;40747;49.480;8.658;2023-04-08T08:20:19;100884.25;;;10.72;82.89
54854;BME280;40747;49.480;8.658;2023-04-08T08:22:45;100883.69;;;10.58;83.32
54854;BME280;40747;49.480;8.658;2023-04-08T08:25:10;100894.41;;;10.50;83.40
54854;BME280;40747;49.480;8.658;2023-04-08T08:27:35;100897.53;;;10.24;83.40
54854;BME280;40747;49.480;8.658;2023-04-08T08:30:02;100896.84;;;10.14;81.98
54854;BME280;40747;49.480;8.658;2023-04-08T08:32:28;100893.59;;;9.99;83.86
54854;BME280;40747;49.480;8.658;2023-04-08T08:34:53;100900.72;;;9.94;84.33
54854;BME280;40747;49.480;8.658;2023-04-08T08:37:19;100900.44;;;10.10;86.37
54854;BME280;40747;49.480;8.658;2023-04-08T08:39:45;100877.13;;;9.91;83.86
54854;BME280;40747;49.480;8.658;2023-04-08T08:42:21;100905.66;;;10.11;83.83
54854;BME280;40747;49.480;8.658;2023-04-08T08:44:47;100903.72;;;10.21;83.70
54854;BME280;40747;49.480;8.658;2023-04-08T08:47:13;100902.84;;;10.22;81.65
54854;BME280;40747;49.480;8.658;2023-04-08T08:49:38;100904.09;;;10.01;79.53
54854;BME280;40747;49.480;8.658;2023-04-08T08:52:04;100900.31;;;10.16;77.78
54854;BME280;40747;49.480;8.658;2023-04-08T08:54:31;100909.41;;;9.99;78.13
54854;BME280;40747;49.480;8.658;2023-04-08T08:56:56;100908.31;;;10.10;79.12
54854;BME280;40747;49.480;8.658;2023-04-08T08:59:21;100915.91;;;10.27;77.61
54854;BME280;40747;49.480;8.658;2023-04-08T09:01:47;100917.34;;;10.45;76.83
54854;BME280;40747;49.480;8.658;2023-04-08T09:04:14;100913.44;;;10.63;76.20
54854;BME280;40747;49.480;8.658;2023-04-08T09:06:49;100913.31;;;10.68;74.77
54854;BME280;40747;49.480;8.658;2023-04-08T09:09:16;100917.69;;;10.69;74.13
54854;BME280;40747;49.480;8.658;2023-04-08T09:11:44;100921.81;;;10.82;74.68
54854;BME280;40747;49.480;8.658;2023-04-08T09:14:23;100922.47;;;10.92;73.56
54854;BME280;40747;49.480;8.658;2023-04-08T09:16:49;100916.13;;;11.01;71.97
54854;BME280;40747;49.480;8.658;2023-04-08T09:19:15;100918.44;;;10.75;73.60
54854;BME280;40747;49.480;8.658;2023-04-08T09:21:41;100916.44;;;10.87;73.74
54854;BME280;40747;49.480;8.658;2023-04-08T09:24:07;100907.31;;;10.61;72.50
54854;BME280;40747;49.480;8.658;2023-04-08T09:26:33;100918.00;;;10.95;73.50
54854;BME280;40747;49.480;8.658;2023-04-08T09:29:05;100920.31;;;11.09;73.21
54854;BME280;40747;49.480;8.658;2023-04-08T09:31:34;100915.66;;;11.21;70.77
54854;BME280;40747;49.480;8.658;2023-04-08T09:36:33;100925.03;;;11.32;69.93
54854;BME280;40747;49.480;8.658;2023-04-08T09:38:59;100920.38;;;11.78;69.52
54854;BME280;40747;49.480;8.658;2023-04-08T09:41:27;100915.41;;;11.68;68.73
54854;BME280;40747;49.480;8.658;2023-04-08T09:43:53;100913.31;;;11.79;69.27
54854;BME280;40747;49.480;8.658;2023-04-08T09:57:39;100928.25;;;12.46;66.42
54854;BME280;40747;49.480;8.658;2023-04-08T10:00:10;100919.22;;;12.55;65.38
54854;BME280;40747;49.480;8.658;2023-04-08T10:02:46;100909.09;;;12.38;63.89
54854;BME280;40747;49.480;8.658;2023-04-08T10:05:13;100912.44;;;12.13;66.48
54854;BME280;40747;49.480;8.658;2023-04-08T10:07:41;100916.19;;;12.04;66.20
54854;BME280;40747;49.480;8.658;2023-04-08T10:10:07;100906.13;;;11.86;65.53
54854;BME280;40747;49.480;8.658;2023-04-08T10:12:35;100917.84;;;11.74;65.77
54854;BME280;40747;49.480;8.658;2023-04-08T10:15:23;100919.75;;;11.69;66.15
54854;BME280;40747;49.480;8.658;2023-04-08T10:17:53;100915.72;;;11.88;66.57
54854;BME280;40747;49.480;8.658;2023-04-08T10:23:00;100916.69;;;11.51;68.05
54854;BME280;40747;49.480;8.658;2023-04-08T10:25:33;100915.09;;;11.44;67.68
54854;BME280;40747;49.480;8.658;2023-04-08T10:33:31;100920.03;;;11.22;68.36
54854;BME280;40747;49.480;8.658;2023-04-08T10:36:11;100926.25;;;11.19;69.67
54854;BME280;40747;49.480;8.658;2023-04-08T10:38:41;100925.50;;;11.14;68.96
54854;BME280;40747;49.480;8.658;2023-04-08T10:41:08;100913.53;;;10.99;68.75
54854;BME280;40747;49.480;8.658;2023-04-08T10:43:35;100927.25;;;11.13;67.89
54854;BME280;40747;49.480;8.658;2023-04-08T10:46:02;100925.69;;;11.05;68.47
54854;BME280;40747;49.480;8.658;2023-04-08T10:48:27;100925.75;;;11.02;69.05
54854;BME280;40747;49.480;8.658;2023-04-08T10:50:56;100928.00;;;11.20;70.78
54854;BME280;40747;49.480;8.658;2023-04-08T10:53:26;100933.03;;;11.29;70.31
54854;BME280;40747;49.480;8.658;2023-04-08T10:55:52;100928.19;;;11.11;67.80
54854;BME280;40747;49.480;8.658;2023-04-08T10:58:18;100926.38;;;11.13;67.83
54854;BME280;40747;49.480;8.658;2023-04-08T11:00:43;100928.91;;;11.18;67.37
54854;BME280;40747;49.480;8.658;2023-04-08T11:03:09;100935.09;;;11.15;67.50
54854;BME280;40747;49.480;8.658;2023-04-08T11:05:37;100936.09;;;11.11;68.52
54854;BME280;40747;49.480;8.658;2023-04-08T11:08:04;100925.66;;;11.06;68.89
54854;BME280;40747;49.480;8.658;2023-04-08T11:10:29;100925.00;;;11.34;69.89
54854;BME280;40747;49.480;8.658;2023-04-08T11:12:56;100924.50;;;11.18;69.01
54854;BME280;40747;49.480;8.658;2023-04-08T11:15:25;100921.25;;;11.07;67.17
54854;BME280;40747;49.480;8.658;2023-04-08T11:17:52;100914.81;;;11.19;67.39
54854;BME280;40747;49.480;8.658;2023-04-08T11:20:18;100920.09;;;11.19;66.70
54854;BME280;40747;49.480;8.658;2023-04-08T11:22:43;100920.78;;;11.27;65.80
54854;BME280;40747;49.480;8.658;2023-04-08T11:25:10;100911.31;;;11.18;65.36
54854;BME280;40747;49.480;8.658;2023-04-08T11:27:36;100916.78;;;11.46;64.18
54854;BME280;40747;49.480;8.658;2023-04-08T11:30:02;100927.53;;;11.39;64.74
54854;BME280;40747;49.480;8.658;2023-04-08T11:32:29;100916.50;;;11.59;63.55
54854;BME280;40747;49.480;8.658;2023-04-08T11:34:55;100914.41;;;11.72;63.35
54854;BME280;40747;49.480;8.658;2023-04-08T11:37:20;100916.09;;;11.74;63.26
54854;BME280;40747;49.480;8.658;2023-04-08T11:39:46;100924.66;;;11.83;62.68
54854;BME280;40747;49.480;8.658;2023-04-08T11:42:28;100916.53;;;11.90;61.84
54854;BME280;40747;49.480;8.658;2023-04-08T11:44:53;100921.81;;;11.90;60.43
54854;BME280;40747;49.480;8.658;2023-04-08T11:47:19;100921.06;;;11.85;59.99
54854;BME280;40747;49.480;8.658;2023-04-08T11:49:45;100913.63;;;12.03;58.92
54854;BME280;40747;49.480;8.658;2023-04-08T11:52:11;100907.72;;;11.91;61.44
54854;BME280;40747;49.480;8.658;2023-04-08T11:54:40;100915.22;;;12.08;63.19
54854;BME280;40747;49.480;8.658;2023-04-08T11:57:06;100912.34;;;12.18;61.66
54854;BME280;40747;49.480;8.658;2023-04-08T11:59:34;100907.66;;;11.93;63.10
54854;BME280;40747;49.480;8.658;2023-04-08T12:02:00;100908.16;;;12.09;63.39
54854;BME280;40747;49.480;8.658;2023-04-08T12:04:26;100910.91;;;12.37;61.81
54854;BME280;40747;49.480;8.658;2023-04-08T12:06:51;100895.09;;;12.36;62.13
54854;BME280;40747;49.480;8.658;2023-04-08T12:09:17;100909.88;;;12.43;61.37
54854;BME280;40747;49.480;8.658;2023-04-08T12:11:43;100891.66;;;12.64;60.69
54854;BME280;40747;49.480;8.658;2023-04-08T12:14:08;100908.53;;;12.58;61.55
54854;BME280;40747;49.480;8.658;2023-04-08T12:16:34;100898.06;;;12.55;61.44
54854;BME280;40747;49.480;8.658;2023-04-08T12:18:59;100909.31;;;12.32;59.57
54854;BME280;40747;49.480;8.658;2023-04-08T12:21:24;100919.38;;;12.49;61.00
54854;BME280;40747;49.480;8.658;2023-04-08T12:23:52;100914.22;;;12.44;60.52
54854;BME280;40747;49.480;8.658;2023-04-08T12:26:17;100905.16;;;12.23;60.32
54854;BME280;40747;49.480;8.658;2023-04-08T12:28:44;100914.22;;;12.44;60.10
54854;BME280;40747;49.480;8.658;2023-04-08T12:31:10;100908.34;;;12.64;59.67
54854;BME280;40747;49.480;8.658;2023-04-08T12:33:35;100906.94;;;12.52;60.01
54854;BME280;40747;49.480;8.658;2023-04-08T12:36:01;100907.34;;;12.68;59.90
54854;BME280;40747;49.480;8.658;2023-04-08T12:38:26;100912.41;;;12.46;60.31
54854;BME280;40747;49.480;8.658;2023-04-08T12:40:52;100907.56;;;12.60;60.54
54854;BME280;40747;49.480;8.658;2023-04-08T12:43:17;100914.94;;;12.51;59.40
54854;BME280;40747;49.480;8.658;2023-04-08T12:45:43;100905.59;;;12.69;59.56
54854;BME280;40747;49.480;8.658;2023-04-08T12:48:08;100876.78;;;12.29;59.71
54854;BME280;40747;49.480;8.658;2023-04-08T12:50:34;100907.63;;;12.59;58.79
54854;BME280;40747;49.480;8.658;2023-04-08T12:52:59;100902.56;;;12.51;60.49
54854;BME280;40747;49.480;8.658;2023-04-08T12:55:25;100900.38;;;12.36;59.91
54854;BME280;40747;49.480;8.658;2023-04-08T12:57:51;100898.50;;;12.39;60.55
54854;BME280;40747;49.480;8.658;2023-04-08T13:00:16;100887.84;;;12.42;60.04
54854;BME280;40747;49.480;8.658;2023-04-08T13:02:42;100882.75;;;12.66;59.31
54854;BME280;40747;49.480;8.658;2023-04-08T13:05:09;100883.97;;;12.84;59.59
54854;BME280;40747;49.480;8.658;2023-04-08T13:07:37;100880.00;;;12.98;59.00
54854;BME280;40747;49.480;8.658;2023-04-08T13:10:03;100872.81;;;13.30;59.98
54854;BME280;40747;49.480;8.658;2023-04-08T13:12:31;100889.84;;;13.21;58.94